Time;durP1;ratioP1;P1;durP2;ratioP2;P2;SDS_P1;SDS_P2;PMS_P1;PMS_P2;Temp;Humidity;BMP_temperature;BMP_pressure;BME280_temperature;BME280_humidity;BME280_pressure;Samples;Min_cycle;Max_cycle;Signal;HPM_P1;HPM_P2
2022/10/23 00:01:56;;;;;;;18.55;10.10;;;10.80;99.90;;;;;;7404027;19;19919;-85
2022/10/23 00:04:26;;;;;;;26.85;11.73;;;10.80;99.90;;;;;;7402657;19;19935;-85
2022/10/23 00:06:55;;;;;;;20.50;11.00;;;10.80;99.90;;;;;;7406777;19;19926;-84
2022/10/23 00:09:26;;;;;;;24.95;11.13;;;10.80;99.90;;;;;;7404515;19;19932;-85
2022/10/23 00:11:55;;;;;;;23.33;10.85;;;10.80;99.90;;;;;;7403376;19;19910;-85
2022/10/23 00:14:26;;;;;;;22.65;11.30;;;10.80;99.90;;;;;;7403094;19;19944;-85
2022/10/23 00:16:55;;;;;;;23.67;10.80;;;10.80;99.90;;;;;;7407011;19;19910;-85
2022/10/23 00:19:24;;;;;;;17.15;8.90;;;10.70;99.90;;;;;;7404594;19;19925;-86
2022/10/23 00:21:53;;;;;;;19.50;9.40;;;10.70;99.90;;;;;;7408574;19;19929;-85
2022/10/23 00:24:22;;;;;;;21.90;11.18;;;10.70;99.90;;;;;;7406135;19;19925;-86
2022/10/23 00:26:52;;;;;;;20.08;10.60;;;10.70;99.90;;;;;;7403092;19;20359;-86
2022/10/23 00:29:20;;;;;;;21.50;10.25;;;10.60;99.90;;;;;;7404777;19;19907;-86
2022/10/23 00:31:53;;;;;;;19.77;9.55;;;10.60;99.90;;;;;;7402991;19;19921;-86
2022/10/23 00:34:22;;;;;;;21.23;11.43;;;10.70;99.90;;;;;;7402996;19;19915;-85
2022/10/23 00:36:51;;;;;;;22.48;11.95;;;10.70;99.90;;;;;;7406166;19;19918;-86
2022/10/23 00:39:20;;;;;;;20.80;11.15;;;10.70;99.90;;;;;;7406805;19;19922;-86
2022/10/23 00:41:49;;;;;;;21.05;10.27;;;10.70;99.90;;;;;;7406016;19;20260;-86
2022/10/23 00:44:47;;;;;;;20.40;10.63;;;10.70;99.90;;;;;;7401346;19;19914;-85
2022/10/23 00:47:20;;;;;;;19.15;11.30;;;10.70;99.90;;;;;;7405572;19;19923;-86
2022/10/23 00:49:49;;;;;;;19.65;11.02;;;10.70;99.90;;;;;;7405470;19;19915;-86
2022/10/23 00:52:18;;;;;;;23.83;12.25;;;10.70;99.90;;;;;;7406793;19;20339;-85
2022/10/23 00:54:47;;;;;;;20.70;11.93;;;10.70;99.90;;;;;;7402077;19;19943;-85
2022/10/23 00:57:17;;;;;;;21.98;11.02;;;10.70;99.90;;;;;;7402455;19;19967;-86
2022/10/23 00:59:46;;;;;;;21.67;10.90;;;10.70;99.90;;;;;;7402023;19;20337;-86
2022/10/23 01:02:16;;;;;;;20.52;11.30;;;10.70;99.90;;;;;;7405334;19;19924;-86
2022/10/23 01:04:47;;;;;;;;;;;10.60;99.90;;;;;;7405727;19;19915;-86
2022/10/23 01:07:21;;;;;;;19.83;11.23;;;10.60;99.90;;;;;;7401793;19;19930;-86
2022/10/23 01:10:00;;;;;;;21.30;10.55;;;10.60;99.90;;;;;;7402404;19;19925;-86
2022/10/23 01:12:36;;;;;;;25.00;12.15;;;10.60;99.90;;;;;;7401490;19;20269;-86
2022/10/23 01:15:13;;;;;;;20.40;10.80;;;10.60;99.90;;;;;;7402808;19;19924;-86
2022/10/23 01:17:47;;;;;;;24.08;12.02;;;10.60;99.90;;;;;;7407229;19;19914;-86
2022/10/23 01:20:36;;;;;;;22.45;12.07;;;10.60;99.90;;;;;;7408590;19;19925;-86
2022/10/23 01:23:29;;;;;;;18.35;10.90;;;10.60;99.90;;;;;;7411909;19;19929;-86
2022/10/23 01:26:15;;;;;;;25.27;12.38;;;10.60;99.90;;;;;;7405227;19;19926;-86
2022/10/23 01:28:51;;;;;;;24.95;11.93;;;10.60;99.90;;;;;;7409372;19;19910;-85
2022/10/23 01:31:22;;;;;;;;;;;10.60;99.90;;;;;;7412541;19;19926;-85
2022/10/23 01:33:57;;;;;;;19.55;8.45;;;10.60;99.90;;;;;;7409052;19;20342;-85
2022/10/23 01:36:30;;;;;;;24.80;11.05;;;10.60;99.90;;;;;;7410239;19;20347;-85
2022/10/23 01:39:04;;;;;;;20.52;10.68;;;10.60;99.90;;;;;;7408104;19;19930;-85
2022/10/23 01:41:37;;;;;;;18.00;11.23;;;10.50;99.90;;;;;;7410018;19;19914;-86
2022/10/23 01:44:15;;;;;;;25.15;11.52;;;10.50;99.90;;;;;;7406904;19;20268;-86
2022/10/23 01:46:46;;;;;;;25.13;11.98;;;10.50;99.90;;;;;;7407366;19;19914;-86
2022/10/23 01:49:16;;;;;;;27.23;12.23;;;10.50;99.90;;;;;;7407694;19;19977;-85
2022/10/23 01:51:56;;;;;;;23.25;12.00;;;10.50;99.90;;;;;;7410742;19;19929;-85
2022/10/23 01:54:27;;;;;;;35.33;12.07;;;10.50;99.90;;;;;;7407670;19;19921;-85
2022/10/23 01:56:59;;;;;;;19.55;10.63;;;10.50;99.90;;;;;;7407193;19;19915;-85
2022/10/23 01:59:35;;;;;;;23.40;11.77;;;10.50;99.90;;;;;;7407260;19;19930;-85
2022/10/23 02:02:05;;;;;;;23.75;11.07;;;10.50;99.90;;;;;;7410624;19;19922;-85
2022/10/23 02:04:38;;;;;;;18.92;10.45;;;10.50;99.90;;;;;;7406592;19;19918;-85
2022/10/23 02:07:07;;;;;;;26.08;10.05;;;10.50;99.90;;;;;;7407238;19;19906;-85
2022/10/23 02:09:36;;;;;;;20.17;10.25;;;10.50;99.90;;;;;;7407224;19;19918;-85
2022/10/23 02:12:10;;;;;;;24.08;9.10;;;10.40;99.90;;;;;;7410768;19;19927;-85
2022/10/23 02:14:47;;;;;;;14.98;8.48;;;10.40;99.90;;;;;;7406393;19;20272;-85
2022/10/23 02:17:23;;;;;;;15.40;9.73;;;10.40;99.90;;;;;;7407560;19;19919;-85
2022/10/23 02:20:00;;;;;;;17.67;10.25;;;10.30;99.90;;;;;;7406765;19;19910;-85
2022/10/23 02:22:32;;;;;;;19.77;10.70;;;10.40;99.90;;;;;;7407778;19;19918;-85
2022/10/23 02:25:08;;;;;;;16.88;8.52;;;10.40;99.90;;;;;;7405865;19;19923;-85
2022/10/23 02:27:39;;;;;;;;;;;10.50;99.90;;;;;;7408938;19;19966;-85
2022/10/23 02:30:15;;;;;;;20.60;10.32;;;10.50;99.90;;;;;;7404654;19;19922;-85
2022/10/23 02:32:47;;;;;;;18.13;8.85;;;10.40;99.90;;;;;;7408270;19;19991;-85
2022/10/23 02:35:18;;;;;;;13.80;7.88;;;10.40;99.90;;;;;;7408707;19;19951;-85
2022/10/23 02:37:54;;;;;;;16.83;8.45;;;10.40;99.90;;;;;;7406598;19;20332;-85
2022/10/23 02:40:25;;;;;;;19.25;9.48;;;10.40;99.90;;;;;;7405515;19;20252;-85
2022/10/23 02:43:01;;;;;;;18.08;9.10;;;10.40;99.90;;;;;;7404632;19;19922;-85
2022/10/23 02:45:37;;;;;;;21.75;9.57;;;10.40;99.90;;;;;;7407173;19;19918;-85
2022/10/23 02:48:09;;;;;;;;;;;10.40;99.90;;;;;;7408908;19;19954;-86
2022/10/23 02:50:47;;;;;;;16.27;9.55;;;10.40;99.90;;;;;;7406637;19;19915;-85
2022/10/23 02:53:20;;;;;;;17.23;10.00;;;10.40;99.90;;;;;;7405751;19;19915;-85
2022/10/23 02:55:59;;;;;;;18.85;9.98;;;10.40;99.90;;;;;;7406028;19;19910;-85
2022/10/23 02:58:32;;;;;;;15.68;9.35;;;10.40;99.90;;;;;;7405170;19;19910;-85
2022/10/23 03:01:07;;;;;;;18.65;9.07;;;10.40;99.90;;;;;;7407506;19;19918;-85
2022/10/23 03:03:41;;;;;;;20.10;10.68;;;10.40;99.90;;;;;;7408946;19;20273;-85
2022/10/23 03:06:10;;;;;;;21.05;10.93;;;10.30;99.90;;;;;;7404618;19;19911;-85
2022/10/23 03:08:50;;;;;;;18.30;9.88;;;10.40;99.90;;;;;;7405723;19;19940;-86
2022/10/23 03:11:19;;;;;;;18.40;9.90;;;10.40;99.90;;;;;;7408662;19;19937;-85
2022/10/23 03:13:48;;;;;;;21.05;10.18;;;10.40;99.90;;;;;;7407288;19;19926;-85
2022/10/23 03:16:19;;;;;;;21.02;10.65;;;10.40;99.90;;;;;;7405139;19;19923;-85
2022/10/23 03:18:48;;;;;;;22.10;10.95;;;10.40;99.90;;;;;;7405796;19;19914;-85
2022/10/23 03:21:17;;;;;;;17.67;9.40;;;10.40;99.90;;;;;;7407279;19;20364;-86
2022/10/23 03:23:46;;;;;;;16.73;8.30;;;10.40;99.90;;;;;;7408536;19;19919;-85
2022/10/23 03:26:15;;;;;;;23.45;10.32;;;10.40;99.90;;;;;;7407530;19;19919;-85
2022/10/23 03:28:43;;;;;;;17.38;9.07;;;10.40;99.90;;;;;;7403850;19;19926;-85
2022/10/23 03:31:12;;;;;;;16.58;7.72;;;10.40;99.90;;;;;;7407986;19;19918;-85
2022/10/23 03:33:44;;;;;;;18.45;8.60;;;10.30;99.90;;;;;;7408263;19;20603;-85
2022/10/23 03:36:13;;;;;;;18.30;8.07;;;10.20;99.90;;;;;;7409080;19;20357;-85
2022/10/23 03:38:42;;;;;;;15.55;7.72;;;10.10;99.90;;;;;;7405128;19;19914;-85
2022/10/23 03:41:11;;;;;;;15.57;8.10;;;10.10;99.90;;;;;;7404322;19;19950;-85
2022/10/23 03:43:40;;;;;;;14.30;7.20;;;10.10;99.90;;;;;;7404057;19;19919;-85
2022/10/23 03:46:11;;;;;;;13.38;7.30;;;10.10;99.90;;;;;;7405583;19;19922;-85
2022/10/23 03:48:41;;;;;;;14.40;7.80;;;10.10;99.90;;;;;;7404717;19;19940;-85
2022/10/23 03:51:13;;;;;;;13.88;7.28;;;10.10;99.90;;;;;;7406644;19;20016;-85
2022/10/23 03:53:42;;;;;;;16.75;7.85;;;10.10;99.90;;;;;;7404108;19;20921;-85
2022/10/23 03:56:11;;;;;;;18.02;7.97;;;10.10;99.90;;;;;;7405385;19;19926;-85
2022/10/23 03:58:40;;;;;;;18.88;7.95;;;10.20;99.90;;;;;;7405513;19;20375;-85
2022/10/23 04:01:09;;;;;;;16.20;9.25;;;10.20;99.90;;;;;;7405735;19;19918;-84
2022/10/23 04:03:38;;;;;;;17.48;9.63;;;10.20;99.90;;;;;;7403206;19;19917;-85
2022/10/23 04:06:07;;;;;;;17.13;9.88;;;10.20;99.90;;;;;;7404743;19;19929;-85
2022/10/23 04:08:39;;;;;;;20.98;9.65;;;10.30;99.90;;;;;;7403579;19;19918;-85
2022/10/23 04:11:08;;;;;;;19.30;9.75;;;10.30;99.90;;;;;;7405402;19;19926;-85
2022/10/23 04:13:37;;;;;;;23.10;11.20;;;10.30;99.90;;;;;;7403220;19;19929;-84
2022/10/23 04:16:06;;;;;;;20.90;10.13;;;10.30;99.90;;;;;;7403609;19;19922;-85
2022/10/23 04:18:35;;;;;;;19.15;11.27;;;10.30;99.90;;;;;;7406020;19;19929;-85
2022/10/23 04:21:04;;;;;;;27.13;12.02;;;10.30;99.90;;;;;;7406888;19;19914;-85
2022/10/23 04:23:32;;;;;;;24.20;11.70;;;10.40;99.90;;;;;;7403318;19;19918;-85
2022/10/23 04:26:04;;;;;;;22.02;9.77;;;10.40;99.90;;;;;;7405471;19;19925;-85
2022/10/23 04:28:33;;;;;;;25.70;10.50;;;10.40;99.90;;;;;;7403436;19;19990;-85
2022/10/23 04:31:02;;;;;;;18.38;10.38;;;10.40;99.90;;;;;;7404574;19;19919;-85
2022/10/23 04:33:31;;;;;;;23.83;10.70;;;10.30;99.90;;;;;;7404518;19;19915;-85
2022/10/23 04:36:00;;;;;;;21.00;10.10;;;10.30;99.90;;;;;;7402882;19;19915;-85
2022/10/23 04:38:29;;;;;;;19.08;9.40;;;10.30;99.90;;;;;;7402862;19;20260;-85
2022/10/23 04:40:57;;;;;;;19.02;10.32;;;10.20;99.90;;;;;;7404400;19;19929;-85
2022/10/23 04:43:29;;;;;;;17.92;9.65;;;10.20;99.90;;;;;;7402189;19;19918;-85
2022/10/23 04:45:58;;;;;;;26.05;12.55;;;10.20;99.90;;;;;;7402221;19;19923;-85
2022/10/23 04:48:27;;;;;;;17.23;9.95;;;10.20;99.90;;;;;;7402458;19;20332;-84
2022/10/23 04:50:59;;;;;;;15.25;8.43;;;10.20;99.90;;;;;;7404160;19;19929;-85
2022/10/23 04:53:30;;;;;;;16.08;7.90;;;10.10;99.90;;;;;;7409139;19;20345;-84
2022/10/23 04:56:00;;;;;;;25.58;10.98;;;10.10;99.90;;;;;;7409046;19;19924;-85
2022/10/23 04:58:32;;;;;;;26.85;12.43;;;10.00;99.90;;;;;;7411583;19;19915;-85
2022/10/23 05:01:01;;;;;;;24.90;11.82;;;10.10;99.90;;;;;;7409128;19;19926;-85
2022/10/23 05:03:29;;;;;;;22.33;11.52;;;10.10;99.90;;;;;;7409904;19;20337;-85
2022/10/23 05:05:58;;;;;;;26.23;11.30;;;10.10;99.90;;;;;;7408623;19;19933;-85
2022/10/23 05:08:28;;;;;;;24.00;11.90;;;10.10;99.90;;;;;;7408765;19;20335;-85
2022/10/23 05:10:57;;;;;;;24.17;11.35;;;10.00;99.90;;;;;;7408629;19;19919;-84
2022/10/23 05:13:26;;;;;;;22.42;11.10;;;10.10;99.90;;;;;;7412060;19;20277;-85
2022/10/23 05:16:01;;;;;;;26.63;12.43;;;10.20;99.90;;;;;;7409943;19;19922;-84
2022/10/23 05:18:33;;;;;;;25.05;11.57;;;10.20;99.90;;;;;;7408882;19;20289;-85
2022/10/23 05:21:06;;;;;;;25.45;13.40;;;10.20;99.90;;;;;;7408707;19;19938;-85
2022/10/23 05:23:37;;;;;;;25.70;12.73;;;10.10;99.90;;;;;;7411982;19;19918;-84
2022/10/23 05:26:06;;;;;;;27.20;10.93;;;10.20;99.90;;;;;;7409428;19;19925;-84
2022/10/23 05:28:35;;;;;;;25.85;12.93;;;10.20;99.90;;;;;;7408499;19;19915;-85
2022/10/23 05:31:08;;;;;;;22.80;11.35;;;10.20;99.90;;;;;;7411478;19;19914;-84
2022/10/23 05:33:39;;;;;;;20.58;11.20;;;10.20;99.90;;;;;;7411422;19;19930;-84
2022/10/23 05:36:10;;;;;;;21.67;10.40;;;10.20;99.90;;;;;;7413328;19;19974;-84
2022/10/23 05:38:39;;;;;;;21.67;11.90;;;10.30;99.90;;;;;;7407903;19;19918;-84
2022/10/23 05:41:08;;;;;;;26.63;11.82;;;10.30;99.90;;;;;;7408043;19;19911;-84
2022/10/23 05:43:37;;;;;;;23.13;11.70;;;10.20;99.90;;;;;;7408904;19;19911;-84
2022/10/23 05:46:09;;;;;;;17.25;9.07;;;10.20;99.90;;;;;;7408315;19;19926;-84
2022/10/23 05:48:38;;;;;;;21.10;11.95;;;10.20;99.90;;;;;;7407492;19;19938;-84
2022/10/23 05:51:08;;;;;;;19.88;10.05;;;10.20;99.90;;;;;;7409244;19;19922;-85
2022/10/23 05:53:38;;;;;;;24.02;11.45;;;10.20;99.90;;;;;;7410501;19;19929;-84
2022/10/23 05:56:07;;;;;;;20.33;10.77;;;10.20;99.90;;;;;;7407781;19;19911;-84
2022/10/23 05:58:36;;;;;;;21.58;12.52;;;10.20;99.90;;;;;;7407283;19;19919;-85
2022/10/23 06:01:10;;;;;;;22.23;11.65;;;10.10;99.90;;;;;;7410004;19;20064;-85
2022/10/23 06:03:40;;;;;;;22.38;10.93;;;10.10;99.90;;;;;;7407380;19;20292;-84
2022/10/23 06:06:09;;;;;;;17.25;9.25;;;10.10;99.90;;;;;;7410184;19;19919;-84
2022/10/23 06:08:38;;;;;;;20.90;11.13;;;10.00;99.90;;;;;;7407256;19;20326;-84
2022/10/23 06:11:09;;;;;;;19.60;10.27;;;9.90;99.90;;;;;;7406864;19;19925;-84
2022/10/23 06:13:38;;;;;;;19.27;10.93;;;9.90;99.90;;;;;;7408701;19;19930;-84
2022/10/23 06:16:14;;;;;;;18.95;11.10;;;9.80;99.90;;;;;;7409605;19;20348;-84
2022/10/23 06:18:44;;;;;;;19.08;11.18;;;9.80;99.90;;;;;;7407037;19;19915;-84
2022/10/23 06:21:13;;;;;;;;;;;9.80;99.90;;;;;;7409025;19;19936;-84
2022/10/23 06:23:44;;;;;;;18.23;10.18;;;9.70;99.90;;;;;;7408521;19;19923;-84
2022/10/23 06:26:15;;;;;;;18.10;9.70;;;9.70;99.90;;;;;;7408993;19;19934;-85
2022/10/23 06:28:44;;;;;;;18.40;10.13;;;9.80;99.90;;;;;;7407478;19;19917;-85
2022/10/23 06:31:18;;;;;;;19.85;9.05;;;9.80;99.90;;;;;;7407039;19;20297;-85
2022/10/23 06:33:47;;;;;;;18.95;10.00;;;9.80;99.90;;;;;;7409805;19;20248;-85
2022/10/23 06:36:16;;;;;;;23.25;8.77;;;9.90;99.90;;;;;;7406834;19;19918;-85
2022/10/23 06:38:44;;;;;;;16.35;9.20;;;9.90;99.90;;;;;;7408725;19;19926;-85
2022/10/23 06:41:16;;;;;;;21.67;10.02;;;9.90;99.90;;;;;;7406328;19;20257;-85
2022/10/23 06:43:45;;;;;;;18.92;10.82;;;10.00;99.90;;;;;;7405831;19;19915;-85
2022/10/23 06:46:16;;;;;;;17.65;8.75;;;10.00;99.90;;;;;;7404013;19;20261;-85
2022/10/23 06:48:46;;;;;;;16.77;9.55;;;10.10;99.90;;;;;;7406455;19;20328;-85
2022/10/23 06:51:17;;;;;;;23.90;9.63;;;10.10;99.90;;;;;;7408875;19;19919;-85
2022/10/23 06:53:47;;;;;;;21.05;10.25;;;10.10;99.90;;;;;;7406174;19;19915;-85
2022/10/23 06:56:16;;;;;;;20.05;8.88;;;10.10;99.90;;;;;;7408348;19;19922;-85
2022/10/23 06:58:44;;;;;;;19.90;9.38;;;10.10;99.90;;;;;;7405816;19;20392;-85
2022/10/23 07:01:17;;;;;;;19.55;10.20;;;10.10;99.90;;;;;;7409282;19;19929;-85
2022/10/23 07:03:46;;;;;;;20.75;10.18;;;10.10;99.90;;;;;;7405709;19;19939;-85
2022/10/23 07:06:14;;;;;;;19.83;9.90;;;10.20;99.90;;;;;;7407553;19;20344;-85
2022/10/23 07:08:43;;;;;;;19.02;8.38;;;10.20;99.90;;;;;;7405439;19;19919;-85
2022/10/23 07:11:13;;;;;;;19.10;8.88;;;10.20;99.90;;;;;;7408557;19;19921;-85
2022/10/23 07:13:43;;;;;;;21.65;9.75;;;10.20;99.90;;;;;;7407812;19;20283;-85
2022/10/23 07:16:19;;;;;;;18.90;9.95;;;10.20;99.90;;;;;;7404910;19;19914;-85
2022/10/23 07:18:48;;;;;;;;;;;10.20;99.90;;;;;;7407787;19;19926;-85
2022/10/23 07:21:17;;;;;;;19.02;8.80;;;10.20;99.90;;;;;;7405133;19;19925;-85
2022/10/23 07:23:46;;;;;;;16.48;9.35;;;10.20;99.90;;;;;;7408664;19;19918;-85
2022/10/23 07:26:17;;;;;;;23.05;9.50;;;10.20;99.90;;;;;;7404755;19;19921;-85
2022/10/23 07:28:49;;;;;;;19.25;9.30;;;10.30;99.90;;;;;;7407934;19;19929;-85
2022/10/23 07:31:21;;;;;;;18.90;10.10;;;10.30;99.90;;;;;;7408026;19;19923;-85
2022/10/23 07:33:49;;;;;;;16.33;9.30;;;10.30;99.90;;;;;;7408215;19;19939;-85
2022/10/23 07:36:19;;;;;;;19.63;10.30;;;10.30;99.90;;;;;;7407529;19;19930;-85
2022/10/23 07:38:48;;;;;;;18.67;8.90;;;10.30;99.90;;;;;;7405072;19;19926;-85
2022/10/23 07:41:16;;;;;;;18.02;10.10;;;10.40;99.90;;;;;;7407285;19;19939;-85
2022/10/23 07:43:45;;;;;;;20.00;10.13;;;10.40;99.90;;;;;;7404345;19;19915;-85
2022/10/23 07:46:14;;;;;;;17.20;8.73;;;10.50;99.90;;;;;;7404220;19;19918;-85
2022/10/23 07:48:46;;;;;;;16.45;8.85;;;10.50;99.90;;;;;;7404333;19;19939;-85
2022/10/23 07:51:17;;;;;;;20.70;9.88;;;10.50;99.90;;;;;;7406071;19;19922;-85
2022/10/23 07:53:47;;;;;;;18.30;10.25;;;10.60;99.90;;;;;;7406657;19;19915;-85
2022/10/23 07:56:17;;;;;;;18.38;10.02;;;10.70;99.90;;;;;;7408489;19;19941;-85
2022/10/23 07:58:46;;;;;;;18.38;9.65;;;10.70;99.90;;;;;;7404273;19;20270;-85
2022/10/23 08:01:19;;;;;;;16.48;8.80;;;10.70;99.90;;;;;;7405360;19;20289;-85
2022/10/23 08:03:51;;;;;;;15.38;8.82;;;10.80;99.90;;;;;;7403870;19;19919;-85
2022/10/23 08:06:19;;;;;;;20.27;8.70;;;10.80;99.90;;;;;;7404112;19;19915;-85
2022/10/23 08:08:48;;;;;;;16.17;9.27;;;10.80;99.90;;;;;;7405209;19;19911;-85
2022/10/23 08:11:24;;;;;;;17.95;9.48;;;10.90;99.90;;;;;;7408203;19;19919;-85
2022/10/23 08:13:53;;;;;;;21.60;9.98;;;11.00;99.90;;;;;;7403125;19;19914;-85
2022/10/23 08:16:22;;;;;;;15.90;8.52;;;11.00;99.90;;;;;;7407561;19;19930;-85
2022/10/23 08:18:54;;;;;;;17.90;10.35;;;11.00;99.90;;;;;;7401727;19;20017;-85
2022/10/23 08:21:23;;;;;;;15.93;8.57;;;11.10;99.90;;;;;;7401636;19;20015;-85
2022/10/23 08:23:54;;;;;;;18.63;9.70;;;11.20;99.90;;;;;;7404248;19;19929;-85
2022/10/23 08:26:23;;;;;;;21.08;8.95;;;11.20;99.90;;;;;;7406133;19;19914;-85
2022/10/23 08:28:52;;;;;;;16.58;8.13;;;11.30;99.90;;;;;;7410350;19;19921;-85
2022/10/23 08:31:23;;;;;;;19.58;9.25;;;11.40;99.90;;;;;;7410014;19;19985;-85
2022/10/23 08:33:55;;;;;;;17.52;8.90;;;11.50;99.90;;;;;;7400974;19;20090;-85
2022/10/23 08:36:26;;;;;;;17.50;9.55;;;11.50;99.90;;;;;;7412041;19;19910;-85
2022/10/23 08:38:56;;;;;;;14.75;9.43;;;11.60;99.90;;;;;;7409299;19;19918;-85
2022/10/23 08:41:29;;;;;;;17.75;8.13;;;11.70;99.90;;;;;;7409438;19;19918;-85
2022/10/23 08:44:05;;;;;;;15.88;8.18;;;11.70;99.90;;;;;;7407185;19;19914;-85
2022/10/23 08:46:39;;;;;;;16.48;9.05;;;11.80;99.90;;;;;;7409054;19;19929;-85
2022/10/23 08:49:31;;;;;;;13.40;6.90;;;11.90;99.90;;;;;;7404034;19;20007;-85
2022/10/23 08:52:03;;;;;;;18.75;7.95;;;12.00;99.90;;;;;;7413778;19;19923;-85
2022/10/23 08:54:41;;;;;;;14.43;8.07;;;12.00;99.90;;;;;;7409202;19;19914;-85
2022/10/23 08:57:15;;;;;;;15.38;8.45;;;12.10;99.90;;;;;;7411971;19;19918;-85
2022/10/23 08:59:49;;;;;;;16.23;8.73;;;12.20;99.90;;;;;;7411516;19;19918;-85
2022/10/23 09:02:22;;;;;;;13.35;7.43;;;12.30;99.90;;;;;;7410403;19;20354;-85
2022/10/23 09:04:56;;;;;;;15.77;9.30;;;12.30;99.90;;;;;;7408903;19;19922;-85
2022/10/23 09:07:35;;;;;;;13.98;7.63;;;12.40;99.90;;;;;;7411789;19;19925;-85
2022/10/23 09:10:20;;;;;;;13.48;8.45;;;12.50;99.90;;;;;;7412884;19;19922;-85
2022/10/23 09:12:49;;;;;;;14.50;8.73;;;12.60;99.90;;;;;;7411897;19;19923;-85
2022/10/23 09:15:27;;;;;;;13.07;8.43;;;12.70;99.90;;;;;;7408349;19;19910;-85
2022/10/23 09:17:59;;;;;;;14.75;7.43;;;12.70;99.90;;;;;;7409386;19;19929;-85
2022/10/23 09:20:35;;;;;;;11.32;7.38;;;12.80;99.90;;;;;;7408408;19;20368;-85
2022/10/23 09:23:09;;;;;;;13.30;5.63;;;12.90;99.90;;;;;;7408640;19;19911;-84
2022/10/23 09:25:41;;;;;;;16.27;7.47;;;13.00;99.90;;;;;;7412840;19;19918;-85
2022/10/23 09:28:20;;;;;;;10.65;7.13;;;13.10;99.90;;;;;;7406994;19;19936;-85
2022/10/23 09:30:50;;;;;;;13.30;6.80;;;13.10;99.90;;;;;;7402569;19;20021;-85
2022/10/23 09:33:22;;;;;;;14.35;7.70;;;13.20;99.90;;;;;;7399452;19;20483;-85
2022/10/23 09:35:59;;;;;;;12.98;6.82;;;13.30;99.90;;;;;;7408139;19;19921;-85
2022/10/23 09:38:33;;;;;;;13.82;7.28;;;13.40;99.90;;;;;;7408095;19;19914;-85
2022/10/23 09:41:07;;;;;;;15.13;8.13;;;13.40;99.90;;;;;;7407976;19;19914;-85
2022/10/23 09:43:36;;;;;;;13.60;6.88;;;13.60;99.90;;;;;;7407103;19;19914;-85
2022/10/23 09:46:09;;;;;;;10.65;6.15;;;13.70;99.90;;;;;;7408764;19;20278;-85
2022/10/23 09:48:38;;;;;;;9.20;4.97;;;13.80;99.90;;;;;;7405739;19;19910;-85
2022/10/23 09:51:19;;;;;;;14.38;6.72;;;14.00;99.90;;;;;;7407663;19;19914;-85
2022/10/23 09:53:54;;;;;;;11.98;5.75;;;14.10;99.90;;;;;;7407528;19;19922;-85
2022/10/23 09:56:29;;;;;;;16.08;5.93;;;14.30;99.90;;;;;;7407582;19;19919;-85
2022/10/23 09:59:01;;;;;;;10.80;5.57;;;14.40;99.90;;;;;;7407327;19;19915;-85
2022/10/23 10:01:31;;;;;;;11.27;5.70;;;14.40;99.90;;;;;;7407913;19;19924;-85
2022/10/23 10:04:01;;;;;;;10.48;6.63;;;14.50;99.90;;;;;;7409905;19;19941;-86
2022/10/23 10:06:34;;;;;;;9.27;4.78;;;14.60;99.90;;;;;;7407553;19;19921;-85
2022/10/23 10:09:10;;;;;;;8.27;5.05;;;14.70;99.90;;;;;;7388209;19;19947;-84
2022/10/23 10:11:45;;;;;;;9.13;4.97;;;14.70;99.90;;;;;;7406087;19;19933;-86
2022/10/23 10:14:43;;;;;;;8.63;5.22;;;14.80;99.90;;;;;;7407742;19;19918;-87
2022/10/23 10:17:22;;;;;;;10.27;5.53;;;14.80;99.90;;;;;;7405370;19;19927;-87
2022/10/23 10:20:16;;;;;;;10.23;6.35;;;14.80;99.90;;;;;;7409678;19;19930;-88
2022/10/23 10:22:54;;;;;;;10.00;5.35;;;14.80;99.90;;;;;;7407088;19;19918;-88
2022/10/23 10:25:29;;;;;;;11.75;5.93;;;14.80;99.90;;;;;;7408963;19;20269;-89
2022/10/23 10:28:09;;;;;;;9.50;6.07;;;14.90;99.90;;;;;;7404638;19;20332;-86
2022/10/23 10:30:47;;;;;;;10.13;5.65;;;15.00;99.90;;;;;;7403226;19;19919;-86
2022/10/23 10:33:23;;;;;;;9.45;4.28;;;15.00;99.90;;;;;;7405222;19;19910;-87
2022/10/23 10:35:58;;;;;;;8.75;4.40;;;15.10;99.90;;;;;;7408333;19;20288;-86
2022/10/23 10:38:44;;;;;;;8.10;4.05;;;15.10;99.90;;;;;;7402308;19;20385;-85
2022/10/23 10:41:38;;;;;;;9.65;5.03;;;15.20;99.90;;;;;;7398606;19;20043;-87
2022/10/23 10:44:28;;;;;;;9.05;5.53;;;15.30;99.90;;;;;;7404631;19;19928;-87
2022/10/23 10:47:01;;;;;;;8.20;5.05;;;15.40;99.90;;;;;;7405156;19;19930;-85
2022/10/23 10:49:37;;;;;;;9.68;4.45;;;15.40;99.90;;;;;;7405069;19;19919;-85
2022/10/23 10:52:16;;;;;;;9.90;4.95;;;15.50;99.90;;;;;;7401414;19;20192;-85
2022/10/23 10:54:58;;;;;;;9.38;3.88;;;15.60;99.90;;;;;;7397186;19;20273;-86
2022/10/23 10:57:33;;;;;;;9.23;5.47;;;15.60;99.90;;;;;;7404562;19;19918;-86
2022/10/23 11:00:05;;;;;;;10.25;5.22;;;15.70;99.90;;;;;;7399055;19;19918;-86
2022/10/23 11:02:41;;;;;;;10.57;4.97;;;15.70;99.90;;;;;;7406080;19;19918;-86
2022/10/23 11:05:22;;;;;;;10.63;5.35;;;15.70;99.90;;;;;;7404393;19;19922;-86
2022/10/23 11:07:56;;;;;;;11.38;4.60;;;15.80;99.90;;;;;;7407451;19;19914;-87
2022/10/23 11:10:29;;;;;;;10.13;4.72;;;15.80;99.90;;;;;;7407587;19;20721;-87
2022/10/23 11:12:59;;;;;;;9.10;4.40;;;15.80;99.90;;;;;;7407216;19;19939;-86
2022/10/23 11:15:30;;;;;;;9.95;5.05;;;15.80;99.90;;;;;;7405421;19;20353;-86
2022/10/23 11:18:02;;;;;;;10.40;5.30;;;15.80;99.90;;;;;;7405774;19;19915;-86
2022/10/23 11:20:52;;;;;;;9.70;4.60;;;15.90;99.90;;;;;;7408692;19;19919;-88
2022/10/23 11:23:48;;;;;;;9.07;4.40;;;15.90;99.90;;;;;;7406889;19;19919;-86
2022/10/23 11:26:34;;;;;;;9.18;5.05;;;15.90;99.90;;;;;;7403341;19;20344;-92
2022/10/23 11:29:39;;;;;;;11.85;4.90;;;15.90;99.90;;;;;;7401907;19;20361;-86
2022/10/23 11:32:24;;;;;;;8.05;4.53;;;16.00;99.90;;;;;;7402248;19;19918;-87
2022/10/23 11:35:23;;;;;;;8.63;4.30;;;16.00;99.90;;;;;;7406015;19;19937;-89
2022/10/23 11:38:01;;;;;;;8.00;4.90;;;16.00;99.90;;;;;;7405083;19;19938;-94
2022/10/23 11:40:31;;;;;;;8.07;3.65;;;16.00;99.90;;;;;;7408466;19;19914;-93
2022/10/23 11:43:02;;;;;;;8.27;4.95;;;16.00;99.90;;;;;;7402980;19;20272;-89
2022/10/23 11:45:35;;;;;;;8.27;4.10;;;16.00;99.90;;;;;;7405693;19;19915;-92
2022/10/23 11:48:05;;;;;;;7.47;3.22;;;16.00;99.90;;;;;;7403290;19;19926;-91
2022/10/23 11:50:51;;;;;;;9.18;3.70;;;16.10;99.90;;;;;;7407166;19;19918;-92
2022/10/23 11:53:28;;;;;;;10.15;4.63;;;16.10;99.90;;;;;;7403095;19;19951;-90
2022/10/23 11:56:06;;;;;;;8.73;3.55;;;16.20;99.90;;;;;;7403085;19;19911;-92
2022/10/23 11:58:50;;;;;;;8.07;3.85;;;16.20;99.90;;;;;;7401751;19;19918;-90
2022/10/23 12:01:29;;;;;;;8.15;4.82;;;16.10;99.90;;;;;;7403338;19;19919;-91
2022/10/23 12:04:02;;;;;;;6.22;3.55;;;16.10;99.90;;;;;;7405772;19;19915;-88
2022/10/23 12:06:33;;;;;;;9.27;5.07;;;16.10;99.90;;;;;;7404167;19;19922;-89
2022/10/23 12:09:06;;;;;;;7.38;4.20;;;16.10;99.90;;;;;;7404117;19;19926;-90
2022/10/23 12:11:50;;;;;;;7.80;3.13;;;16.10;99.90;;;;;;7406600;19;19919;-93
2022/10/23 12:14:34;;;;;;;12.98;4.95;;;16.00;99.90;;;;;;7406416;19;19951;-92
2022/10/23 12:17:04;;;;;;;9.05;3.67;;;16.00;99.90;;;;;;7404682;19;20008;-92
2022/10/23 12:19:49;;;;;;;7.50;4.85;;;16.00;99.90;;;;;;7404933;19;19923;-90
2022/10/23 12:22:18;;;;;;;9.05;4.53;;;16.00;99.90;;;;;;7405205;19;20015;-91
2022/10/23 12:25:02;;;;;;;7.05;3.90;;;16.00;99.90;;;;;;7406161;19;19926;-92
2022/10/23 12:27:37;;;;;;;8.70;4.60;;;16.00;99.90;;;;;;7404748;19;19922;-94
2022/10/23 12:30:22;;;;;;;9.38;4.45;;;16.10;99.90;;;;;;7402138;19;19923;-89
2022/10/23 12:33:14;;;;;;;6.72;4.13;;;16.10;99.90;;;;;;7405428;19;19933;-88
2022/10/23 12:36:23;;;;;;;6.50;4.25;;;16.10;99.90;;;;;;7402356;19;19946;-91
2022/10/23 12:38:54;;;;;;;9.65;4.68;;;16.10;99.90;;;;;;7401755;19;19911;-85
2022/10/23 12:41:26;;;;;;;8.13;3.58;;;16.10;99.90;;;;;;7402922;19;19959;-85
2022/10/23 12:43:58;;;;;;;7.30;3.03;;;16.20;99.90;;;;;;7405352;19;19974;-86
2022/10/23 12:46:35;;;;;;;12.52;4.18;;;16.20;99.90;;;;;;7401949;19;19918;-86
2022/10/23 12:49:13;;;;;;;8.25;3.58;;;16.20;99.90;;;;;;7399882;19;19918;-86
2022/10/23 12:51:42;;;;;;;7.22;3.10;;;16.30;99.90;;;;;;7399633;19;20271;-86
2022/10/23 12:54:17;;;;;;;9.55;3.80;;;16.30;99.90;;;;;;7401661;19;19925;-86
2022/10/23 12:56:46;;;;;;;6.13;3.05;;;16.30;99.90;;;;;;7402060;19;20341;-86
2022/10/23 12:59:19;;;;;;;6.22;2.53;;;16.30;99.90;;;;;;7403334;19;20269;-86
2022/10/23 13:01:50;;;;;;;7.25;3.58;;;16.40;99.90;;;;;;7405627;19;19936;-86
2022/10/23 13:04:27;;;;;;;9.35;3.58;;;16.40;99.90;;;;;;7402195;19;19926;-86
2022/10/23 13:06:58;;;;;;;6.93;3.95;;;16.40;99.90;;;;;;7401316;19;19915;-86
2022/10/23 13:09:31;;;;;;;6.97;3.15;;;16.40;99.90;;;;;;7400866;19;20021;-86